Time;durP1;ratioP1;P1;durP2;ratioP2;P2;SDS_P1;SDS_P2;PMS_P1;PMS_P2;Temp;Humidity;BMP_temperature;BMP_pressure;BME280_temperature;BME280_humidity;BME280_pressure;Samples;Min_cycle;Max_cycle;Signal;HPM_P1;HPM_P2
2023/07/30 00:01:13;;;;;;;65.95;60.53;;;16.10;99.90;;;;;;5016263;28;20051;-81
2023/07/30 00:03:39;;;;;;;55.13;50.83;;;16.10;99.90;;;;;;5033163;28;20037;-81
2023/07/30 00:06:04;;;;;;;55.78;51.60;;;16.00;99.90;;;;;;5033929;28;20037;-81
2023/07/30 00:08:30;;;;;;;65.53;61.15;;;16.00;99.90;;;;;;5015716;28;20033;-81
2023/07/30 00:10:59;;;;;;;67.25;61.78;;;15.90;99.90;;;;;;5034157;28;20041;-81
2023/07/30 00:13:25;;;;;;;63.53;58.90;;;15.90;99.90;;;;;;5032926;28;20107;-81
2023/07/30 00:15:51;;;;;;;66.80;61.92;;;15.80;99.90;;;;;;5032593;28;20033;-81
2023/07/30 00:18:17;;;;;;;62.00;57.53;;;15.70;99.90;;;;;;5032445;28;20099;-81
2023/07/30 00:20:42;;;;;;;69.28;64.53;;;15.70;99.90;;;;;;5032675;28;20440;-81
2023/07/30 00:23:08;;;;;;;64.45;59.45;;;15.70;99.90;;;;;;5032260;28;20117;-81
2023/07/30 00:25:34;;;;;;;68.78;63.42;;;15.90;99.90;;;;;;5032459;28;20038;-81
2023/07/30 00:27:59;;;;;;;63.08;58.65;;;15.60;99.90;;;;;;5033659;28;20116;-81
2023/07/30 00:30:25;;;;;;;62.60;58.42;;;15.50;99.90;;;;;;5032416;28;20499;-81
2023/07/30 00:32:51;;;;;;;61.22;56.95;;;15.50;99.90;;;;;;5032417;28;20605;-81
2023/07/30 00:35:17;;;;;;;55.72;51.85;;;15.50;99.90;;;;;;5032481;28;20507;-81
2023/07/30 00:37:42;;;;;;;61.10;56.70;;;15.50;99.90;;;;;;5033186;28;20499;-81
2023/07/30 00:40:08;;;;;;;64.50;59.70;;;15.40;99.90;;;;;;5032477;28;20116;-81
2023/07/30 00:42:34;;;;;;;69.20;64.30;;;15.40;99.90;;;;;;5033344;28;20068;-81
2023/07/30 00:45:00;;;;;;;65.25;60.47;;;15.40;99.90;;;;;;5032085;28;20064;-82
2023/07/30 00:47:26;;;;;;;61.42;57.03;;;15.40;99.90;;;;;;5032054;28;20041;-81
2023/07/30 00:49:52;;;;;;;56.13;51.97;;;15.30;99.90;;;;;;5031895;28;20399;-82
2023/07/30 00:52:20;;;;;;;52.10;48.22;;;15.20;99.90;;;;;;5033446;28;20050;-82
2023/07/30 00:54:48;;;;;;;58.30;53.67;;;15.20;99.90;;;;;;5014976;28;20033;-81
2023/07/30 00:57:15;;;;;;;58.03;53.47;;;15.20;99.90;;;;;;5033071;28;20041;-81
2023/07/30 00:59:41;;;;;;;57.83;53.03;;;15.20;99.90;;;;;;5033214;28;20116;-81
2023/07/30 01:02:07;;;;;;;75.20;69.65;;;15.20;99.90;;;;;;5031627;28;20137;-81
2023/07/30 01:04:33;;;;;;;80.82;75.13;;;15.40;99.90;;;;;;5033043;28;20045;-81
2023/07/30 01:06:58;;;;;;;69.60;64.80;;;15.10;99.90;;;;;;5033109;28;20096;-81
2023/07/30 01:09:24;;;;;;;73.28;68.20;;;15.10;99.90;;;;;;5031631;28;20038;-81
2023/07/30 01:11:52;;;;;;;72.28;67.00;;;15.10;99.90;;;;;;5032844;28;20038;-81
2023/07/30 01:14:19;;;;;;;67.32;62.47;;;15.10;99.90;;;;;;5031505;28;20045;-81
2023/07/30 01:16:45;;;;;;;58.75;54.50;;;15.10;99.90;;;;;;5031484;28;20041;-81
2023/07/30 01:19:10;;;;;;;70.28;64.63;;;15.50;99.90;;;;;;5014492;28;20115;-81
2023/07/30 01:21:37;;;;;;;64.80;60.00;;;15.20;99.90;;;;;;5031276;28;20053;-81
2023/07/30 01:24:03;;;;;;;65.05;60.33;;;15.20;99.90;;;;;;5031370;28;20488;-81
2023/07/30 01:26:42;;;;;;;67.05;61.83;;;15.30;99.90;;;;;;5014843;28;20084;-81
2023/07/30 01:29:34;;;;;;;74.18;68.75;;;15.30;99.90;;;;;;5031300;28;20073;-81
2023/07/30 01:32:06;;;;;;;72.68;67.15;;;15.30;99.90;;;;;;5006640;28;20053;-81
2023/07/30 01:34:35;;;;;;;79.60;73.70;;;15.40;99.90;;;;;;5031044;28;20080;-82
2023/07/30 01:37:01;;;;;;;75.70;70.18;;;15.40;99.90;;;;;;5032434;28;20045;-82
2023/07/30 01:39:28;;;;;;;50.90;46.97;;;15.40;99.90;;;;;;5032369;28;20403;-81
2023/07/30 01:41:54;;;;;;;72.30;66.47;;;15.50;99.90;;;;;;5014485;28;20046;-81
2023/07/30 01:44:20;;;;;;;70.32;64.57;;;15.40;99.90;;;;;;5030881;28;20037;-81
2023/07/30 01:46:46;;;;;;;65.57;60.55;;;15.60;99.90;;;;;;5030940;28;20059;-82
2023/07/30 01:49:11;;;;;;;63.25;58.50;;;15.40;99.90;;;;;;5030366;28;20037;-81
2023/07/30 01:51:37;;;;;;;70.28;64.95;;;15.80;99.90;;;;;;5032170;28;20052;-82
2023/07/30 01:54:03;;;;;;;67.53;62.17;;;15.50;99.90;;;;;;5030820;28;20423;-81
2023/07/30 01:56:28;;;;;;;70.40;65.07;;;15.50;99.90;;;;;;5031884;28;20484;-81
2023/07/30 01:58:54;;;;;;;79.57;73.40;;;15.50;99.90;;;;;;5030977;28;20042;-82
2023/07/30 02:01:20;;;;;;;74.60;68.63;;;15.50;99.90;;;;;;5014198;28;20034;-81
2023/07/30 02:03:45;;;;;;;75.90;69.82;;;15.50;99.90;;;;;;5013925;28;20450;-81
2023/07/30 02:06:11;;;;;;;69.95;64.32;;;15.70;99.90;;;;;;5013922;28;20033;-81
2023/07/30 02:08:37;;;;;;;47.75;43.10;;;15.50;99.90;;;;;;5030133;28;20675;-81
2023/07/30 02:11:03;;;;;;;68.97;62.97;;;15.70;99.90;;;;;;5030416;28;20037;-81
2023/07/30 02:13:29;;;;;;;73.30;67.50;;;15.60;99.90;;;;;;5031904;28;20041;-81
2023/07/30 02:15:55;;;;;;;50.70;46.17;;;15.60;99.90;;;;;;5013939;28;20044;-81
2023/07/30 02:18:20;;;;;;;55.83;51.45;;;15.60;99.90;;;;;;5030106;28;20430;-82
2023/07/30 02:20:46;;;;;;;74.28;68.50;;;15.50;99.90;;;;;;5030400;28;20037;-82
2023/07/30 02:23:16;;;;;;;57.13;52.10;;;15.50;99.90;;;;;;5030557;28;20037;-81
2023/07/30 02:25:41;;;;;;;76.60;70.20;;;15.50;99.90;;;;;;5031504;28;20047;-82
2023/07/30 02:28:07;;;;;;;71.35;65.38;;;15.40;99.90;;;;;;5031799;28;20201;-81
2023/07/30 02:30:33;;;;;;;75.18;68.95;;;15.40;99.90;;;;;;5030497;28;20087;-81
2023/07/30 02:32:59;;;;;;;71.35;64.88;;;15.40;99.90;;;;;;5030045;28;20045;-82
2023/07/30 02:35:25;;;;;;;74.72;68.72;;;15.30;99.90;;;;;;5030153;28;20041;-81
2023/07/30 02:37:51;;;;;;;64.00;59.15;;;15.30;99.90;;;;;;5031481;28;20041;-81
2023/07/30 02:40:17;;;;;;;55.63;51.22;;;15.30;99.90;;;;;;5029970;28;20041;-81
2023/07/30 02:42:42;;;;;;;65.60;60.25;;;15.30;99.90;;;;;;5030109;28;20069;-81
2023/07/30 02:45:08;;;;;;;62.63;57.30;;;15.20;99.90;;;;;;5031491;28;20079;-82
2023/07/30 02:47:34;;;;;;;72.90;67.22;;;15.20;99.90;;;;;;5030970;28;20034;-82
2023/07/30 02:49:59;;;;;;;73.32;67.03;;;15.20;99.90;;;;;;5030009;28;20033;-81
2023/07/30 02:52:25;;;;;;;62.08;57.42;;;15.10;99.90;;;;;;5013872;28;20041;-81
2023/07/30 02:54:51;;;;;;;76.70;70.45;;;15.10;99.90;;;;;;5013464;28;20049;-81
2023/07/30 02:57:16;;;;;;;64.68;59.45;;;15.10;99.90;;;;;;5029874;28;20484;-82
2023/07/30 02:59:42;;;;;;;76.90;71.13;;;15.00;99.90;;;;;;5030036;28;20041;-81
2023/07/30 03:02:07;;;;;;;71.30;65.38;;;15.10;99.90;;;;;;5013167;28;20207;-82
2023/07/30 03:04:33;;;;;;;73.40;67.60;;;15.10;99.90;;;;;;5013577;28;20045;-81
2023/07/30 03:06:59;;;;;;;75.20;68.80;;;15.10;99.90;;;;;;5013678;28;20496;-81
2023/07/30 03:09:25;;;;;;;67.97;62.58;;;15.20;99.90;;;;;;5030090;28;20038;-81
2023/07/30 03:11:50;;;;;;;60.33;55.65;;;15.10;99.90;;;;;;5013333;28;20044;-81
2023/07/30 03:14:20;;;;;;;63.53;58.38;;;15.20;99.90;;;;;;5031331;28;20515;-81
2023/07/30 03:16:48;;;;;;;70.07;64.63;;;15.30;99.90;;;;;;5029299;28;20124;-81
2023/07/30 03:19:14;;;;;;;64.18;59.00;;;15.20;99.90;;;;;;5032993;28;20508;-81
2023/07/30 03:21:40;;;;;;;52.72;48.60;;;15.30;99.90;;;;;;5033505;28;20077;-81
2023/07/30 03:24:05;;;;;;;68.22;62.85;;;15.30;99.90;;;;;;5033752;28;20157;-82
2023/07/30 03:26:31;;;;;;;70.68;65.43;;;15.30;99.90;;;;;;5033570;28;20045;-81
2023/07/30 03:28:57;;;;;;;66.97;62.05;;;15.30;99.90;;;;;;5033768;28;20045;-81
2023/07/30 03:31:22;;;;;;;57.60;52.85;;;15.30;99.90;;;;;;5034235;28;20037;-82
2023/07/30 03:33:48;;;;;;;48.75;44.72;;;15.30;99.90;;;;;;5033407;28;20048;-81
2023/07/30 03:36:14;;;;;;;56.70;52.38;;;15.60;99.90;;;;;;5033537;28;20042;-81
2023/07/30 03:38:40;;;;;;;68.68;63.20;;;15.30;99.90;;;;;;5033345;28;20044;-81
2023/07/30 03:41:06;;;;;;;62.95;57.58;;;15.40;99.90;;;;;;5033521;28;20129;-82
2023/07/30 03:43:33;;;;;;;65.43;60.35;;;15.30;99.90;;;;;;5033347;28;20120;-81
2023/07/30 03:45:58;;;;;;;75.85;70.18;;;15.30;99.90;;;;;;5034181;28;20112;-81
2023/07/30 03:48:24;;;;;;;60.83;55.80;;;15.30;99.90;;;;;;5033234;28;20464;-81
2023/07/30 03:50:50;;;;;;;55.28;50.45;;;15.30;99.90;;;;;;5033258;28;20404;-81
2023/07/30 03:53:15;;;;;;;70.32;65.20;;;15.30;99.90;;;;;;5033314;28;20030;-82
2023/07/30 03:55:41;;;;;;;60.42;55.80;;;15.30;99.90;;;;;;5032994;28;20510;-81
2023/07/30 03:58:07;;;;;;;44.08;40.20;;;15.30;99.90;;;;;;5016711;28;20103;-81
2023/07/30 04:00:33;;;;;;;83.53;77.68;;;15.30;99.90;;;;;;5032883;28;20045;-81
2023/07/30 04:02:58;;;;;;;70.38;64.90;;;15.30;99.90;;;;;;5032871;28;20073;-82
2023/07/30 04:05:24;;;;;;;67.57;63.13;;;15.20;99.90;;;;;;5016441;28;20120;-82
2023/07/30 04:07:50;;;;;;;80.38;74.53;;;15.20;99.90;;;;;;5032758;28;20073;-81
2023/07/30 04:10:16;;;;;;;69.57;63.65;;;15.20;99.90;;;;;;5032758;28;20120;-82
2023/07/30 04:12:41;;;;;;;58.53;53.80;;;15.20;99.90;;;;;;5016227;28;20038;-82
2023/07/30 04:15:07;;;;;;;57.05;51.97;;;15.10;99.90;;;;;;5033503;28;20049;-81
2023/07/30 04:17:37;;;;;;;70.30;65.03;;;15.10;99.90;;;;;;5032636;28;20392;-81
2023/07/30 04:20:04;;;;;;;52.38;47.95;;;15.20;99.90;;;;;;5034036;28;20052;-81
2023/07/30 04:22:30;;;;;;;86.38;79.47;;;15.20;99.90;;;;;;5033706;28;20498;-82
2023/07/30 04:24:55;;;;;;;68.72;63.28;;;15.20;99.90;;;;;;5033989;28;20069;-81
2023/07/30 04:27:21;;;;;;;58.85;54.22;;;15.20;99.90;;;;;;5031934;28;20116;-81
2023/07/30 04:29:47;;;;;;;86.00;79.13;;;15.20;99.90;;;;;;5031657;28;20120;-81
2023/07/30 04:32:15;;;;;;;56.92;52.42;;;15.20;99.90;;;;;;5015640;28;20136;-82
2023/07/30 04:34:40;;;;;;;59.20;54.63;;;15.20;99.90;;;;;;5032316;28;20077;-81
2023/07/30 04:37:06;;;;;;;61.03;56.08;;;15.30;99.90;;;;;;5032229;28;20097;-82
2023/07/30 04:39:32;;;;;;;54.50;50.17;;;15.30;99.90;;;;;;5032229;28;20037;-82
2023/07/30 04:41:58;;;;;;;69.88;65.18;;;15.30;99.90;;;;;;5015148;28;20037;-82
2023/07/30 04:44:24;;;;;;;40.42;36.47;;;15.40;99.90;;;;;;5032045;28;20083;-81
2023/07/30 04:46:49;;;;;;;28.45;23.20;;;15.40;99.90;;;;;;5032027;28;20391;-81
2023/07/30 04:49:15;;;;;;;37.65;33.92;;;15.50;99.90;;;;;;5032228;28;20507;-81
2023/07/30 04:51:41;;;;;;;43.90;40.42;;;15.50;99.90;;;;;;5033400;28;20519;-82
2023/07/30 04:54:07;;;;;;;43.10;39.33;;;15.80;99.90;;;;;;5033336;28;20041;-81
2023/07/30 04:56:32;;;;;;;52.60;47.95;;;15.80;99.90;;;;;;5031327;28;20037;-81
2023/07/30 04:58:58;;;;;;;26.60;24.02;;;15.90;99.90;;;;;;5032150;28;20438;-81
2023/07/30 05:01:24;;;;;;;43.67;39.72;;;16.10;99.90;;;;;;5031784;28;20041;-81
2023/07/30 05:03:50;;;;;;;23.40;13.10;;;16.20;99.90;;;;;;5031910;28;20038;-82
2023/07/30 05:06:16;;;;;;;18.08;11.60;;;16.30;99.90;;;;;;5031736;28;20037;-81
2023/07/30 05:08:41;;;;;;;23.63;18.08;;;16.40;99.90;;;;;;5015484;28;20482;-81
2023/07/30 05:11:07;;;;;;;22.98;15.43;;;16.40;99.90;;;;;;5014646;28;20041;-82
2023/07/30 05:13:33;;;;;;;19.88;11.63;;;16.40;99.90;;;;;;5015237;28;20039;-82
2023/07/30 05:15:59;;;;;;;20.33;10.73;;;16.50;99.90;;;;;;5031583;28;20029;-82
2023/07/30 05:18:24;;;;;;;18.17;9.23;;;16.50;99.90;;;;;;5031101;28;20064;-82
2023/07/30 05:20:50;;;;;;;18.67;8.55;;;16.50;99.90;;;;;;5031371;28;20037;-81
2023/07/30 05:23:16;;;;;;;19.30;13.70;;;16.50;99.90;;;;;;5031301;28;20042;-82
2023/07/30 05:25:41;;;;;;;22.33;14.93;;;16.50;99.90;;;;;;5031071;28;20440;-81
2023/07/30 05:28:07;;;;;;;22.50;12.75;;;16.50;99.90;;;;;;5031241;28;20048;-82
2023/07/30 05:30:33;;;;;;;23.55;11.20;;;16.70;99.90;;;;;;5031299;28;20037;-82
2023/07/30 05:32:58;;;;;;;18.13;9.98;;;16.60;99.90;;;;;;5031216;28;20042;-82
2023/07/30 05:35:24;;;;;;;23.98;10.70;;;16.70;99.90;;;;;;5032435;28;20045;-82
2023/07/30 05:37:50;;;;;;;19.30;9.68;;;16.80;99.90;;;;;;5032669;28;20095;-82
2023/07/30 05:40:15;;;;;;;22.75;10.00;;;16.90;99.90;;;;;;5014147;28;20041;-82
2023/07/30 05:42:41;;;;;;;26.35;9.93;;;17.00;99.90;;;;;;5030723;28;20033;-82
2023/07/30 05:45:07;;;;;;;26.55;10.70;;;17.10;99.90;;;;;;5014559;28;20049;-82
2023/07/30 05:47:33;;;;;;;23.92;17.33;;;17.10;99.90;;;;;;5014497;28;20045;-82
2023/07/30 05:49:59;;;;;;;19.73;7.95;;;17.20;99.90;;;;;;5030984;28;20048;-82
2023/07/30 05:52:24;;;;;;;25.05;11.23;;;17.30;99.90;;;;;;5032279;28;20476;-82
2023/07/30 05:54:50;;;;;;;20.75;10.60;;;17.40;99.90;;;;;;5030678;28;20079;-82
2023/07/30 05:57:16;;;;;;;23.25;11.05;;;17.40;99.90;;;;;;5032079;28;20480;-81
2023/07/30 05:59:41;;;;;;;22.10;13.57;;;17.40;99.90;;;;;;5014493;28;20033;-82
2023/07/30 06:02:10;;;;;;;19.13;16.20;;;17.60;99.90;;;;;;5030625;28;20069;-81
2023/07/30 06:04:35;;;;;;;23.70;19.38;;;17.60;99.90;;;;;;5030766;28;20480;-82
2023/07/30 06:07:02;;;;;;;22.77;9.82;;;17.70;99.90;;;;;;5030662;28;20075;-82
2023/07/30 06:09:28;;;;;;;22.08;14.43;;;17.70;99.90;;;;;;5030391;28;20073;-82
2023/07/30 06:11:56;;;;;;;16.83;8.73;;;17.60;99.90;;;;;;5030517;28;20091;-82
2023/07/30 06:14:21;;;;;;;18.50;9.35;;;17.80;99.90;;;;;;5030750;28;20415;-82
2023/07/30 06:16:47;;;;;;;21.80;9.98;;;17.90;99.90;;;;;;5030491;28;20041;-82
2023/07/30 06:19:13;;;;;;;21.25;9.18;;;17.90;99.90;;;;;;5031346;28;20053;-82
2023/07/30 06:21:38;;;;;;;24.60;9.90;;;18.00;99.90;;;;;;5030107;28;20141;-82
2023/07/30 06:24:04;;;;;;;17.88;8.23;;;18.00;99.90;;;;;;5030026;28;20540;-82
2023/07/30 06:26:30;;;;;;;26.08;20.60;;;18.00;99.90;;;;;;5013984;28;20042;-82
2023/07/30 06:28:55;;;;;;;23.40;9.43;;;17.90;99.90;;;;;;5013892;28;20120;-82
2023/07/30 06:31:21;;;;;;;21.45;11.40;;;17.90;99.90;;;;;;5013833;28;20131;-82
2023/07/30 06:33:47;;;;;;;22.88;9.88;;;17.90;99.90;;;;;;5030553;28;20457;-82
2023/07/30 06:36:12;;;;;;;17.42;8.85;;;18.00;99.90;;;;;;5031852;28;20037;-82
2023/07/30 06:38:38;;;;;;;23.40;13.75;;;17.90;99.90;;;;;;5013537;28;20095;-82
2023/07/30 06:41:03;;;;;;;25.83;8.23;;;17.80;99.90;;;;;;5013637;28;20034;-82
2023/07/30 06:43:29;;;;;;;25.33;15.35;;;17.70;99.90;;;;;;5030286;28;20041;-82
2023/07/30 06:45:55;;;;;;;20.67;13.25;;;17.80;99.90;;;;;;5013709;28;20029;-82
2023/07/30 06:48:21;;;;;;;21.88;8.18;;;17.80;99.90;;;;;;5031687;28;20427;-82
2023/07/30 06:50:46;;;;;;;17.27;8.75;;;17.90;99.90;;;;;;5031660;28;20480;-82
2023/07/30 06:53:12;;;;;;;22.90;8.07;;;18.00;99.90;;;;;;5013470;28;20042;-82
2023/07/30 06:55:37;;;;;;;22.30;11.18;;;18.00;99.90;;;;;;5034454;28;20081;-82
2023/07/30 06:58:03;;;;;;;22.50;14.70;;;18.10;99.90;;;;;;5017690;28;20041;-82
2023/07/30 07:00:29;;;;;;;21.65;15.98;;;18.50;99.90;;;;;;5035377;28;20048;-82
2023/07/30 07:02:54;;;;;;;19.48;10.10;;;19.40;99.90;;;;;;5035171;28;20049;-82
2023/07/30 07:05:20;;;;;;;23.55;11.70;;;19.60;99.90;;;;;;5034075;28;20049;-82
2023/07/30 07:07:46;;;;;;;28.52;19.90;;;19.70;99.90;;;;;;5033523;28;20045;-82
2023/07/30 07:10:11;;;;;;;23.40;11.55;;;19.80;99.90;;;;;;5035281;28;20064;-82
2023/07/30 07:12:38;;;;;;;22.85;13.57;;;19.80;99.90;;;;;;5034114;28;20072;-82
2023/07/30 07:15:05;;;;;;;24.63;21.55;;;19.80;99.90;;;;;;5033850;28;20037;-82
2023/07/30 07:17:31;;;;;;;21.30;10.65;;;20.00;99.90;;;;;;5017324;28;20064;-82
2023/07/30 07:19:57;;;;;;;21.45;15.30;;;20.30;99.90;;;;;;5035535;28;20135;-82
2023/07/30 07:22:23;;;;;;;18.77;12.60;;;20.30;99.90;;;;;;5033380;28;20075;-82
2023/07/30 07:24:52;;;;;;;25.70;14.70;;;20.30;99.90;;;;;;5035004;28;20060;-82
2023/07/30 07:27:17;;;;;;;19.05;13.70;;;20.10;99.90;;;;;;5017101;28;20049;-82
2023/07/30 07:29:43;;;;;;;19.55;15.45;;;19.90;99.90;;;;;;5033524;28;20033;-82
2023/07/30 07:32:09;;;;;;;23.02;19.20;;;20.10;99.90;;;;;;5017033;28;20037;-82
2023/07/30 07:34:35;;;;;;;24.30;16.33;;;20.20;99.90;;;;;;5033417;28;20523;-82
2023/07/30 07:37:01;;;;;;;24.00;21.48;;;20.30;99.90;;;;;;5033281;28;20042;-82
2023/07/30 07:39:27;;;;;;;22.80;17.55;;;20.50;99.90;;;;;;5033410;28;20384;-82
2023/07/30 07:41:52;;;;;;;19.80;16.40;;;20.60;99.90;;;;;;5033259;28;20077;-81
2023/07/30 07:44:18;;;;;;;23.23;20.15;;;20.70;99.90;;;;;;5033236;28;20128;-82
2023/07/30 07:46:44;;;;;;;20.65;17.52;;;20.90;99.90;;;;;;5016794;28;20099;-82
2023/07/30 07:49:09;;;;;;;24.60;22.10;;;20.90;99.90;;;;;;5034666;28;20125;-82
2023/07/30 07:51:35;;;;;;;24.45;21.95;;;20.90;99.90;;;;;;5016583;28;20488;-82
2023/07/30 07:54:00;;;;;;;42.05;38.13;;;22.10;99.90;;;;;;5016701;28;20045;-82
2023/07/30 07:56:26;;;;;;;40.72;37.38;;;23.40;99.90;;;;;;5033104;28;20089;-83
2023/07/30 07:58:52;;;;;;;38.03;35.05;;;24.30;99.90;;;;;;5032885;28;20037;-82
2023/07/30 08:01:17;;;;;;;54.03;50.03;;;24.90;99.90;;;;;;5016464;28;20037;-83
2023/07/30 08:03:43;;;;;;;53.70;49.90;;;25.70;99.90;;;;;;5034110;28;20041;-83
2023/07/30 08:06:09;;;;;;;74.07;68.95;;;26.30;99.90;;;;;;5033914;28;20103;-83
2023/07/30 08:08:35;;;;;;;88.20;81.97;;;26.40;99.90;;;;;;5034262;28;20479;-83
2023/07/30 08:11:06;;;;;;;89.22;83.25;;;25.50;99.90;;;;;;5032774;28;20037;-82
2023/07/30 08:13:31;;;;;;;92.53;86.53;;;25.20;99.90;;;;;;5032725;28;20034;-82
2023/07/30 08:15:57;;;;;;;104.47;97.68;;;24.60;99.90;;;;;;5034200;28;20083;-82
2023/07/30 08:18:23;;;;;;;1864.32;999.90;;;24.00;99.90;;;;;;5032641;28;20092;-82
2023/07/30 08:20:50;;;;;;;1999.90;999.90;;;23.40;99.90;;;;;;5032287;28;20044;-82
2023/07/30 08:23:15;;;;;;;1334.75;870.58;;;22.80;99.90;;;;;;5032674;28;20124;-82
2023/07/30 08:25:42;;;;;;;1403.80;859.35;;;22.30;99.90;;;;;;5016312;28;20069;-83
2023/07/30 08:28:08;;;;;;;1434.90;929.78;;;22.00;99.90;;;;;;5032545;28;20065;-81
2023/07/30 08:30:33;;;;;;;859.60;655.75;;;21.40;99.90;;;;;;5033912;28;20412;-82
2023/07/30 08:32:59;;;;;;;594.97;472.80;;;20.80;99.90;;;;;;5016245;28;20125;-82
2023/07/30 08:35:26;;;;;;;588.47;474.30;;;20.40;99.90;;;;;;5033324;28;20121;-83
2023/07/30 08:37:52;;;;;;;533.75;436.42;;;20.00;99.90;;;;;;5032398;28;20124;-82
2023/07/30 08:40:18;;;;;;;276.33;213.27;;;19.50;99.90;;;;;;5032363;28;20081;-82
2023/07/30 08:42:44;;;;;;;329.65;293.60;;;19.40;99.90;;;;;;5032121;28;20037;-82
2023/07/30 08:45:10;;;;;;;181.82;165.18;;;19.40;99.90;;;;;;5032191;28;20489;-82
2023/07/30 08:47:39;;;;;;;143.40;129.15;;;19.40;99.90;;;;;;5015620;28;20411;-82
2023/07/30 08:50:05;;;;;;;129.50;118.88;;;19.40;99.90;;;;;;5033169;28;20033;-82
2023/07/30 08:52:32;;;;;;;129.20;118.60;;;19.40;99.90;;;;;;5032025;28;20164;-82
2023/07/30 08:55:01;;;;;;;122.15;112.30;;;19.30;99.90;;;;;;5032252;28;20041;-82
2023/07/30 08:57:29;;;;;;;96.57;89.50;;;19.30;99.90;;;;;;5031934;28;20041;-81
2023/07/30 09:00:03;;;;;;;81.00;75.32;;;19.10;99.90;;;;;;5015377;28;20123;-82
2023/07/30 09:02:35;;;;;;;42.67;39.08;;;19.10;99.90;;;;;;5032100;28;20107;-81
2023/07/30 09:05:04;;;;;;;23.38;20.42;;;19.10;99.90;;;;;;5031371;28;20099;-81
2023/07/30 09:07:30;;;;;;;29.73;27.25;;;19.10;99.90;;;;;;5015288;28;20041;-82
2023/07/30 09:09:55;;;;;;;33.92;31.40;;;19.20;99.90;;;;;;5031563;28;20476;-82
2023/07/30 09:12:28;;;;;;;43.35;40.35;;;19.40;99.90;;;;;;5033156;28;20037;-82
2023/07/30 09:14:54;;;;;;;50.40;46.75;;;19.60;99.90;;;;;;5031909;28;20047;-82
2023/07/30 09:17:20;;;;;;;75.68;70.20;;;20.00;99.90;;;;;;5032257;28;20033;-82
2023/07/30 09:19:50;;;;;;;86.72;80.38;;;20.30;99.90;;;;;;5014816;28;20396;-82
2023/07/30 09:22:29;;;;;;;97.65;90.68;;;20.80;99.90;;;;;;5031543;28;20040;-82
2023/07/30 09:24:58;;;;;;;190.93;177.75;;;21.20;99.90;;;;;;5031540;28;20042;-82
2023/07/30 09:27:26;;;;;;;321.58;296.40;;;21.30;99.90;;;;;;5031496;28;20071;-82
2023/07/30 09:30:02;;;;;;;214.30;199.68;;;21.30;99.90;;;;;;5031475;28;20427;-82
2023/07/30 09:32:32;;;;;;;325.83;302.08;;;21.20;99.90;;;;;;5030721;28;20045;-82
2023/07/30 09:35:07;;;;;;;184.23;170.80;;;21.00;99.90;;;;;;5031140;28;20049;-81
2023/07/30 09:37:38;;;;;;;111.95;103.97;;;20.70;99.90;;;;;;5031424;28;20100;-81
2023/07/30 09:40:08;;;;;;;41.03;38.22;;;20.40;99.90;;;;;;5031210;28;20492;-81
2023/07/30 09:42:37;;;;;;;38.83;35.95;;;20.10;99.90;;;;;;5032428;28;20377;-81
2023/07/30 09:45:03;;;;;;;30.90;28.42;;;19.80;99.90;;;;;;5031094;28;20050;-81
2023/07/30 09:47:30;;;;;;;32.20;29.60;;;19.60;99.90;;;;;;5030765;28;20037;-81
2023/07/30 09:49:56;;;;;;;23.70;21.85;;;19.40;99.90;;;;;;5030978;28;20518;-81
2023/07/30 09:52:22;;;;;;;22.40;20.35;;;19.40;99.90;;;;;;5032421;28;20041;-81
2023/07/30 09:54:52;;;;;;;23.38;21.58;;;19.40;99.90;;;;;;5031224;28;20041;-81
2023/07/30 09:57:17;;;;;;;18.92;17.48;;;19.40;99.90;;;;;;5030814;28;20037;-81
2023/07/30 09:59:43;;;;;;;14.98;11.82;;;19.40;99.90;;;;;;5030776;28;20035;-81
2023/07/30 10:02:11;;;;;;;15.30;12.00;;;19.50;99.90;;;;;;5030281;28;20040;-81
2023/07/30 10:04:42;;;;;;;19.20;17.73;;;19.70;99.90;;;;;;5032133;28;20055;-81
2023/07/30 10:07:16;;;;;;;14.90;13.50;;;19.80;99.90;;;;;;5014684;28;20049;-81
2023/07/30 10:09:45;;;;;;;15.45;14.13;;;19.80;99.90;;;;;;5031972;28;20048;-81
2023/07/30 10:12:18;;;;;;;15.68;14.30;;;19.80;99.90;;;;;;5030655;28;20476;-81
2023/07/30 10:14:44;;;;;;;19.33;17.77;;;19.70;99.90;;;;;;5030896;28;20365;-81
2023/07/30 10:17:11;;;;;;;17.40;16.20;;;19.50;99.90;;;;;;5030436;28;20111;-81
2023/07/30 10:19:37;;;;;;;16.98;15.60;;;19.60;99.90;;;;;;5031658;28;20128;-81
2023/07/30 10:22:14;;;;;;;20.20;18.67;;;19.50;99.90;;;;;;5031771;28;20124;-81
2023/07/30 10:24:55;;;;;;;13.85;12.52;;;19.60;99.90;;;;;;5030262;28;20034;-81
2023/07/30 10:27:26;;;;;;;13.00;11.80;;;19.60;99.90;;;;;;5030315;28;20400;-81
2023/07/30 10:30:13;;;;;;;22.20;20.58;;;19.70;99.90;;;;;;5030924;28;20041;-81
2023/07/30 10:32:54;;;;;;;15.93;14.73;;;20.00;99.90;;;;;;5031726;28;20490;-81
2023/07/30 10:35:38;;;;;;;22.75;21.15;;;20.00;99.90;;;;;;5031570;28;20049;-81
2023/07/30 10:38:24;;;;;;;24.92;23.20;;;20.00;99.90;;;;;;5030292;28;20045;-81
2023/07/30 10:41:06;;;;;;;19.63;18.27;;;20.30;99.90;;;;;;5013785;28;20091;-81
2023/07/30 10:43:50;;;;;;;32.40;30.38;;;20.90;99.90;;;;;;5031456;28;20352;-81
2023/07/30 10:46:18;;;;;;;23.50;21.65;;;21.40;99.90;;;;;;5030053;28;20029;-81
2023/07/30 10:48:45;;;;;;;41.88;39.35;;;21.70;99.90;;;;;;5030406;28;20430;-81
2023/07/30 10:51:17;;;;;;;53.28;49.95;;;21.80;99.90;;;;;;5030325;28;20060;-81
2023/07/30 10:53:47;;;;;;;45.55;42.55;;;21.90;99.90;;;;;;5013666;28;20048;-81
2023/07/30 10:56:15;;;;;;;56.97;53.25;;;21.90;99.90;;;;;;5013649;28;20033;-81
2023/07/30 10:58:42;;;;;;;55.03;51.55;;;21.90;99.90;;;;;;5013944;28;20045;-81
2023/07/30 11:01:08;;;;;;;29.90;27.17;;;21.60;99.90;;;;;;5029467;28;20128;-81
2023/07/30 11:03:35;;;;;;;33.53;30.98;;;21.30;99.90;;;;;;5031373;28;20167;-81
2023/07/30 11:06:02;;;;;;;28.00;25.70;;;20.90;99.90;;;;;;5013981;28;20037;-81
2023/07/30 11:08:39;;;;;;;32.00;29.73;;;20.50;99.90;;;;;;5029872;28;20068;-81
2023/07/30 11:11:07;;;;;;;24.98;22.83;;;20.20;99.90;;;;;;5030180;28;20369;-81
2023/07/30 11:13:51;;;;;;;29.20;26.60;;;20.20;99.90;;;;;;5029393;28;20487;-81
2023/07/30 11:16:17;;;;;;;21.73;19.90;;;20.20;99.90;;;;;;5029997;28;20042;-81
2023/07/30 11:18:43;;;;;;;21.70;19.92;;;20.30;99.90;;;;;;5029831;28;20044;-81
2023/07/30 11:21:16;;;;;;;30.00;27.77;;;20.40;99.90;;;;;;5029867;28;20546;-81
2023/07/30 11:23:43;;;;;;;20.88;19.13;;;20.80;99.90;;;;;;5013410;28;20574;-81
2023/07/30 11:26:17;;;;;;;25.48;22.88;;;20.90;99.90;;;;;;5031257;28;20484;-81
2023/07/30 11:28:43;;;;;;;16.23;14.68;;;21.20;99.90;;;;;;5012969;28;20038;-81
2023/07/30 11:31:13;;;;;;;28.08;26.02;;;21.50;99.90;;;;;;5029793;28;20050;-81
2023/07/30 11:33:41;;;;;;;24.08;22.08;;;21.90;99.90;;;;;;5030025;28;20443;-80
2023/07/30 11:36:10;;;;;;;43.70;40.72;;;22.30;99.90;;;;;;5031318;28;20049;-81
2023/07/30 11:38:37;;;;;;;76.93;71.88;;;22.60;99.90;;;;;;5029740;28;20037;-82
2023/07/30 11:41:03;;;;;;;90.13;84.50;;;22.70;99.90;;;;;;5033180;28;20095;-82
2023/07/30 11:43:29;;;;;;;143.85;135.25;;;22.60;99.90;;;;;;5032758;28;20034;-81
2023/07/30 11:46:08;;;;;;;162.88;152.98;;;22.60;99.90;;;;;;5033538;28;20041;-81
2023/07/30 11:48:34;;;;;;;199.25;187.55;;;22.70;99.90;;;;;;5033313;28;20488;-81
2023/07/30 11:51:00;;;;;;;221.43;208.93;;;22.70;99.90;;;;;;5034768;28;20041;-82
2023/07/30 11:53:56;;;;;;;249.52;234.63;;;22.80;99.90;;;;;;5033383;28;20037;-81
2023/07/30 11:56:26;;;;;;;192.32;180.88;;;22.80;99.90;;;;;;5034430;28;20080;-82
2023/07/30 11:59:01;;;;;;;239.30;225.02;;;22.60;99.90;;;;;;5032722;28;20049;-81
2023/07/30 12:01:30;;;;;;;149.63;140.73;;;22.30;99.90;;;;;;5033035;28;20458;-81
2023/07/30 12:04:00;;;;;;;140.15;131.18;;;21.80;99.90;;;;;;5033065;28;20599;-81
2023/07/30 12:06:47;;;;;;;75.50;70.75;;;21.60;99.90;;;;;;5016730;28;20083;-81
2023/07/30 12:09:14;;;;;;;97.47;91.47;;;21.30;99.90;;;;;;5033241;28;20400;-81
2023/07/30 12:11:58;;;;;;;106.32;99.97;;;21.30;99.90;;;;;;5032487;28;20866;-81
2023/07/30 12:14:33;;;;;;;168.90;158.95;;;21.60;99.90;;;;;;5032876;28;20045;-81
2023/07/30 12:17:01;;;;;;;183.27;172.13;;;21.70;99.90;;;;;;5034040;28;20047;-82
2023/07/30 12:19:27;;;;;;;207.05;194.32;;;21.90;99.90;;;;;;5033794;28;20057;-82
2023/07/30 12:21:53;;;;;;;209.73;197.68;;;22.10;99.90;;;;;;5032735;28;20464;-81
2023/07/30 12:24:19;;;;;;;189.70;178.05;;;22.10;99.90;;;;;;5032823;28;20033;-81
2023/07/30 12:26:44;;;;;;;165.27;155.85;;;21.80;99.90;;;;;;5033538;28;20069;-81